createdAt,value
2017-09-06T00:00:31.074Z,3.40
2017-09-06T00:02:58.591Z,3.40
2017-09-06T00:05:26.103Z,2.95
2017-09-06T00:07:53.629Z,3.17
2017-09-06T00:10:21.143Z,3.17
2017-09-06T00:12:50.179Z,3.90
2017-09-06T00:15:17.672Z,3.17
2017-09-06T00:17:45.190Z,3.60
2017-09-06T00:20:13.019Z,3.37
2017-09-06T00:22:41.475Z,2.95
2017-09-06T00:25:09.084Z,3.58
2017-09-06T00:27:36.667Z,3.20
2017-09-06T00:30:04.295Z,3.00
2017-09-06T00:32:31.824Z,3.03
2017-09-06T00:34:59.323Z,3.70
2017-09-06T00:37:26.912Z,3.20
2017-09-06T00:39:54.527Z,2.75
2017-09-06T00:42:22.140Z,2.80
2017-09-06T00:44:49.646Z,3.50
2017-09-06T00:47:17.177Z,3.65
2017-09-06T00:49:44.687Z,3.50
2017-09-06T00:52:12.402Z,3.17
2017-09-06T00:54:39.910Z,3.22
2017-09-06T00:57:07.628Z,3.30
2017-09-06T00:59:35.140Z,3.40
2017-09-06T01:02:02.643Z,3.20
2017-09-06T01:04:30.165Z,3.17
2017-09-06T01:06:57.675Z,3.95
2017-09-06T01:09:25.200Z,3.40
2017-09-06T01:11:52.736Z,3.28
2017-09-06T01:14:20.379Z,3.20
2017-09-06T01:16:47.891Z,3.17
2017-09-06T01:19:15.406Z,2.87
2017-09-06T01:21:42.903Z,3.05
2017-09-06T01:24:10.438Z,3.40
2017-09-06T01:26:37.950Z,3.35
2017-09-06T01:29:05.756Z,2.90
2017-09-06T01:31:33.278Z,3.12
2017-09-06T01:34:01.095Z,3.47
2017-09-06T01:36:28.662Z,2.87
2017-09-06T01:38:56.179Z,3.40
2017-09-06T01:41:23.724Z,3.15
2017-09-06T01:43:51.275Z,3.50
2017-09-06T01:46:18.804Z,3.28
2017-09-06T01:48:46.318Z,3.45
2017-09-06T01:51:13.815Z,3.33
2017-09-06T01:53:41.348Z,3.40
2017-09-06T01:56:09.690Z,3.10
2017-09-06T01:58:37.235Z,3.53
2017-09-06T02:01:04.739Z,2.70
2017-09-06T02:03:32.252Z,3.12
2017-09-06T02:05:59.787Z,3.25
2017-09-06T02:08:27.354Z,3.00
2017-09-06T02:10:54.883Z,3.60
2017-09-06T02:13:22.386Z,3.17
2017-09-06T02:15:49.907Z,2.60
2017-09-06T02:18:17.432Z,2.33
2017-09-06T02:20:44.950Z,2.78
2017-09-06T02:23:12.459Z,3.28
2017-09-06T02:25:39.988Z,3.50
2017-09-06T02:28:07.498Z,3.10
2017-09-06T02:30:35.022Z,3.33
2017-09-06T02:33:02.531Z,3.05
2017-09-06T02:35:30.058Z,3.08
2017-09-06T02:37:57.563Z,3.20
2017-09-06T02:40:25.087Z,3.03
2017-09-06T02:42:52.592Z,2.97
2017-09-06T02:45:20.119Z,2.70
2017-09-06T02:47:47.623Z,3.25
2017-09-06T02:50:15.154Z,3.20
2017-09-06T02:52:42.661Z,2.80
2017-09-06T02:55:10.186Z,2.85
2017-09-06T02:57:37.704Z,3.17
2017-09-06T03:00:05.220Z,2.83
2017-09-06T03:02:32.724Z,2.92
2017-09-06T03:05:00.243Z,3.22
2017-09-06T03:07:27.767Z,3.33
2017-09-06T03:09:55.274Z,2.53
2017-09-06T03:12:22.790Z,2.60
2017-09-06T03:14:50.307Z,3.45
2017-09-06T03:17:17.831Z,2.70
2017-09-06T03:19:45.338Z,2.50
2017-09-06T03:22:12.867Z,2.80
2017-09-06T03:24:40.375Z,3.00
2017-09-06T03:27:07.907Z,2.87
2017-09-06T03:29:35.418Z,2.65
2017-09-06T03:32:03.743Z,2.90
2017-09-06T03:34:31.256Z,3.00
2017-09-06T03:36:58.783Z,2.85
2017-09-06T03:39:26.307Z,2.90
2017-09-06T03:41:53.830Z,2.70
2017-09-06T03:44:21.338Z,2.60
2017-09-06T03:46:48.866Z,3.00
2017-09-06T03:49:16.374Z,2.53
2017-09-06T03:51:43.907Z,3.05
2017-09-06T03:54:11.416Z,2.83
2017-09-06T03:56:38.942Z,2.67
2017-09-06T03:59:06.466Z,2.78
2017-09-06T04:01:33.998Z,2.50
2017-09-06T04:04:01.525Z,2.80
2017-09-06T04:06:29.051Z,2.25
2017-09-06T04:08:57.343Z,2.62
2017-09-06T04:11:24.851Z,2.47
2017-09-06T04:13:52.374Z,2.30
2017-09-06T04:16:19.879Z,2.55
2017-09-06T04:18:47.414Z,2.50
2017-09-06T04:21:14.919Z,1.87
2017-09-06T04:23:42.448Z,2.12
2017-09-06T04:26:09.951Z,2.80
2017-09-06T04:28:37.462Z,2.30
2017-09-06T04:31:04.962Z,2.70
2017-09-06T04:33:32.482Z,3.00
2017-09-06T04:35:59.998Z,2.60
2017-09-06T04:38:27.515Z,3.15
2017-09-06T04:40:55.030Z,2.10
2017-09-06T04:43:22.554Z,3.40
2017-09-06T04:45:50.062Z,2.40
2017-09-06T04:48:17.583Z,2.10
2017-09-06T04:50:45.083Z,2.72
2017-09-06T04:53:12.608Z,3.20
2017-09-06T04:55:40.118Z,3.05
2017-09-06T04:58:07.635Z,2.70
2017-09-06T05:00:35.138Z,3.00
2017-09-06T05:03:02.715Z,3.15
2017-09-06T05:05:30.218Z,2.70
2017-09-06T05:07:57.746Z,3.60
2017-09-06T05:10:25.260Z,2.62
2017-09-06T05:12:52.982Z,3.00
2017-09-06T05:15:20.498Z,2.72
2017-09-06T05:17:47.999Z,3.20
2017-09-06T05:20:15.528Z,4.85
2017-09-06T05:22:43.082Z,2.67
2017-09-06T05:25:10.615Z,2.90
2017-09-06T05:27:38.132Z,2.92
2017-09-06T05:30:05.655Z,2.92
2017-09-06T05:32:33.162Z,2.78
2017-09-06T05:35:00.677Z,3.28
2017-09-06T05:37:28.178Z,3.10
2017-09-06T05:39:55.694Z,3.70
2017-09-06T05:42:23.186Z,2.70
2017-09-06T05:44:50.698Z,3.67
2017-09-06T05:47:18.279Z,2.40
2017-09-06T05:49:45.874Z,2.60
2017-09-06T05:52:13.389Z,3.15
2017-09-06T05:54:40.923Z,2.60
2017-09-06T05:57:09.478Z,2.40
2017-09-06T05:59:37.012Z,2.90
2017-09-06T06:02:04.697Z,3.17
2017-09-06T06:04:32.223Z,3.30
2017-09-06T06:06:59.722Z,2.70
2017-09-06T06:09:27.264Z,3.37
2017-09-06T06:11:54.772Z,2.90
2017-09-06T06:14:22.524Z,2.95
2017-09-06T06:16:50.151Z,2.87
2017-09-06T06:19:17.672Z,2.75
2017-09-06T06:21:45.194Z,2.95
2017-09-06T06:24:12.695Z,2.50
2017-09-06T06:26:40.238Z,2.83
2017-09-06T06:29:07.767Z,2.40
2017-09-06T06:31:35.285Z,2.42
2017-09-06T06:34:02.791Z,2.35
2017-09-06T06:36:30.346Z,2.97
2017-09-06T06:38:57.863Z,2.60
2017-09-06T06:41:25.378Z,2.85
2017-09-06T06:43:52.880Z,2.70
2017-09-06T06:46:20.398Z,3.00
2017-09-06T06:48:48.662Z,2.67
2017-09-06T06:51:16.187Z,2.87
2017-09-06T06:53:43.690Z,2.75
2017-09-06T06:56:11.223Z,2.80
2017-09-06T06:58:38.731Z,2.67
2017-09-06T07:01:06.252Z,2.20
2017-09-06T07:03:33.771Z,2.83
2017-09-06T07:06:01.290Z,2.65
2017-09-06T07:08:28.786Z,2.15
2017-09-06T07:10:56.306Z,2.42
2017-09-06T07:13:23.852Z,2.40
2017-09-06T07:15:51.399Z,2.45
2017-09-06T07:18:18.926Z,2.50
2017-09-06T07:20:46.447Z,2.40
2017-09-06T07:23:13.989Z,2.70
2017-09-06T07:25:41.482Z,2.40
2017-09-06T07:28:08.994Z,2.83
2017-09-06T07:30:36.518Z,1.95
2017-09-06T07:33:04.034Z,2.70
2017-09-06T07:35:31.542Z,2.45
2017-09-06T07:37:59.056Z,2.15
2017-09-06T07:40:26.563Z,2.03
2017-09-06T07:42:54.078Z,2.10
2017-09-06T07:45:21.574Z,2.20
2017-09-06T07:47:49.091Z,2.30
2017-09-06T07:50:16.591Z,1.80
2017-09-06T07:52:44.122Z,2.33
2017-09-06T07:55:11.628Z,1.95
2017-09-06T07:57:39.152Z,2.10
2017-09-06T08:00:06.657Z,2.15
2017-09-06T08:02:34.179Z,1.90
2017-09-06T08:05:01.679Z,1.80
2017-09-06T08:07:29.195Z,1.67
2017-09-06T08:09:56.694Z,1.80
2017-09-06T08:12:24.211Z,1.65
2017-09-06T08:14:51.711Z,1.85
2017-09-06T08:17:19.207Z,2.30
2017-09-06T08:19:46.755Z,1.90
2017-09-06T08:22:14.263Z,1.80
2017-09-06T08:24:41.786Z,1.75
2017-09-06T08:27:09.367Z,1.90
2017-09-06T08:29:36.886Z,1.70
2017-09-06T08:32:04.391Z,1.70
2017-09-06T08:34:31.906Z,1.58
2017-09-06T08:36:59.404Z,1.45
2017-09-06T08:39:26.918Z,1.77
2017-09-06T08:41:54.430Z,1.75
2017-09-06T08:44:21.952Z,1.80
2017-09-06T08:46:49.451Z,1.50
2017-09-06T08:49:16.971Z,1.17
2017-09-06T08:51:45.242Z,1.33
2017-09-06T08:54:12.749Z,1.40
2017-09-06T08:56:40.243Z,1.30
2017-09-06T08:59:07.759Z,1.40
2017-09-06T09:01:35.259Z,1.58
2017-09-06T09:04:02.782Z,1.60
2017-09-06T09:06:30.287Z,1.92
2017-09-06T09:08:57.803Z,1.17
2017-09-06T09:11:25.301Z,1.70
2017-09-06T09:13:52.814Z,1.83
2017-09-06T09:16:20.322Z,2.20
2017-09-06T09:18:47.823Z,1.98
2017-09-06T09:21:15.337Z,1.73
2017-09-06T09:23:42.845Z,1.85
2017-09-06T09:26:10.363Z,2.05
2017-09-06T09:28:37.863Z,1.83
2017-09-06T09:31:05.378Z,1.80
2017-09-06T09:33:32.882Z,2.08
2017-09-06T09:36:00.422Z,1.70
2017-09-06T09:38:27.915Z,1.65
2017-09-06T09:40:55.435Z,1.58
2017-09-06T09:43:22.936Z,1.60
2017-09-06T09:45:50.450Z,1.80
2017-09-06T09:48:17.950Z,1.65
2017-09-06T09:50:45.512Z,1.70
2017-09-06T09:53:13.029Z,1.70
2017-09-06T09:55:40.572Z,1.80
2017-09-06T09:58:08.076Z,1.80
2017-09-06T10:00:35.583Z,1.67
2017-09-06T10:03:03.089Z,2.05
2017-09-06T10:05:30.611Z,1.70
2017-09-06T10:07:58.109Z,1.48
2017-09-06T10:10:25.627Z,1.95
2017-09-06T10:12:53.130Z,1.50
2017-09-06T10:15:20.651Z,1.90
2017-09-06T10:17:48.177Z,1.73
2017-09-06T10:20:15.703Z,1.55
2017-09-06T10:22:43.256Z,1.55
2017-09-06T10:25:10.758Z,1.75
2017-09-06T10:27:38.286Z,1.35
2017-09-06T10:30:05.777Z,2.05
2017-09-06T10:32:33.315Z,1.60
2017-09-06T10:35:00.826Z,1.50
2017-09-06T10:37:28.346Z,1.30
2017-09-06T10:39:55.855Z,1.67
2017-09-06T10:42:23.366Z,1.50
2017-09-06T10:44:50.935Z,1.30
2017-09-06T10:47:18.457Z,1.48
2017-09-06T10:49:45.963Z,1.40
2017-09-06T10:52:13.513Z,1.40
2017-09-06T10:54:41.026Z,1.35
2017-09-06T10:57:08.556Z,1.20
2017-09-06T10:59:36.065Z,1.05
2017-09-06T11:02:03.579Z,1.37
2017-09-06T11:04:31.127Z,1.17
2017-09-06T11:06:58.644Z,1.35
2017-09-06T11:09:26.151Z,1.70
2017-09-06T11:11:53.680Z,1.05
2017-09-06T11:14:21.189Z,1.27
2017-09-06T11:16:48.706Z,1.55
2017-09-06T11:19:16.214Z,1.65
2017-09-06T11:21:43.770Z,1.40
2017-09-06T11:24:11.307Z,1.62
2017-09-06T11:26:38.814Z,1.37
2017-09-06T11:29:06.331Z,1.08
2017-09-06T11:31:33.830Z,1.20
2017-09-06T11:34:01.380Z,1.60
2017-09-06T11:36:28.878Z,1.15
2017-09-06T11:38:56.411Z,1.30
2017-09-06T11:41:23.918Z,1.20
2017-09-06T11:43:51.455Z,1.20
2017-09-06T11:46:18.966Z,1.10
2017-09-06T11:48:46.506Z,1.02
2017-09-06T11:51:14.014Z,1.00
2017-09-06T11:53:41.527Z,1.40
2017-09-06T11:56:09.043Z,1.20
2017-09-06T11:58:36.560Z,1.00
2017-09-06T12:01:04.093Z,1.25
2017-09-06T12:03:31.656Z,1.40
2017-09-06T12:05:59.159Z,1.23
2017-09-06T12:08:26.681Z,1.65
2017-09-06T12:10:54.203Z,1.30
2017-09-06T12:13:21.739Z,1.62
2017-09-06T12:15:49.243Z,1.48
2017-09-06T12:18:16.766Z,1.40
2017-09-06T12:20:44.274Z,1.52
2017-09-06T12:23:11.806Z,1.20
2017-09-06T12:25:39.311Z,1.30
2017-09-06T12:28:06.847Z,1.55
2017-09-06T12:30:34.371Z,1.20
2017-09-06T12:33:01.884Z,1.00
2017-09-06T12:35:29.414Z,1.30
2017-09-06T12:37:56.927Z,1.30
2017-09-06T12:40:24.438Z,1.17
2017-09-06T12:42:51.930Z,1.15
2017-09-06T12:45:19.444Z,1.45
2017-09-06T12:47:47.723Z,1.30
2017-09-06T12:50:15.247Z,1.30
2017-09-06T12:52:42.768Z,1.58
2017-09-06T12:55:10.288Z,1.20
2017-09-06T12:57:37.805Z,1.37
2017-09-06T13:00:05.335Z,1.30
2017-09-06T13:02:32.850Z,1.30
2017-09-06T13:05:00.374Z,1.20
2017-09-06T13:07:27.934Z,1.65
2017-09-06T13:09:55.455Z,1.55
2017-09-06T13:12:22.975Z,1.40
2017-09-06T13:14:50.495Z,1.33
2017-09-06T13:17:18.037Z,1.48
2017-09-06T13:19:46.361Z,1.50
2017-09-06T13:22:13.904Z,1.50
2017-09-06T13:24:41.456Z,1.42
2017-09-06T13:27:09.018Z,1.30
2017-09-06T13:29:36.546Z,1.30
2017-09-06T13:32:04.866Z,1.30
2017-09-06T13:34:32.404Z,1.40
2017-09-06T13:36:59.938Z,1.10
2017-09-06T13:39:27.565Z,1.10
2017-09-06T13:41:55.103Z,1.80
2017-09-06T13:44:22.611Z,1.65
2017-09-06T13:46:50.171Z,1.20
2017-09-06T13:49:17.697Z,1.25
2017-09-06T13:51:45.226Z,1.15
2017-09-06T13:54:12.812Z,1.10
2017-09-06T13:56:40.349Z,1.33
2017-09-06T13:59:07.884Z,1.08
2017-09-06T14:01:35.412Z,1.35
2017-09-06T14:04:02.926Z,1.45
2017-09-06T14:06:30.446Z,1.20
2017-09-06T14:08:57.956Z,1.00
2017-09-06T14:11:25.474Z,1.17
2017-09-06T14:13:52.984Z,1.23
2017-09-06T14:16:21.397Z,1.30
2017-09-06T14:18:48.902Z,1.40
2017-09-06T14:21:16.454Z,1.33
2017-09-06T14:23:43.977Z,1.42
2017-09-06T14:26:11.511Z,1.30
2017-09-06T14:28:39.023Z,1.30
2017-09-06T14:31:07.302Z,1.33
2017-09-06T14:33:34.851Z,1.20
2017-09-06T14:36:02.371Z,1.40
2017-09-06T14:38:29.887Z,1.37
2017-09-06T14:40:57.386Z,1.33
2017-09-06T14:43:24.982Z,1.20
2017-09-06T14:45:52.492Z,1.20
2017-09-06T14:48:20.014Z,1.37
2017-09-06T14:50:47.526Z,1.92
2017-09-06T14:53:15.064Z,1.12
2017-09-06T14:55:42.574Z,1.50
2017-09-06T14:58:10.098Z,1.25
2017-09-06T15:00:37.602Z,1.20
2017-09-06T15:03:05.143Z,1.05
2017-09-06T15:05:32.656Z,0.80
2017-09-06T15:08:00.187Z,0.90
2017-09-06T15:10:27.703Z,0.80
2017-09-06T15:12:55.268Z,0.80
2017-09-06T15:15:22.770Z,0.80
2017-09-06T15:17:50.286Z,0.80
2017-09-06T15:20:17.785Z,0.80
2017-09-06T15:22:45.318Z,0.90
2017-09-06T15:25:12.823Z,1.27
2017-09-06T15:27:40.339Z,1.15
2017-09-06T15:30:07.855Z,0.80
2017-09-06T15:32:35.387Z,0.95
2017-09-06T15:35:02.904Z,1.02
2017-09-06T15:37:30.403Z,0.90
2017-09-06T15:39:58.691Z,0.90
2017-09-06T15:42:26.222Z,1.17
2017-09-06T15:44:53.781Z,1.00
2017-09-06T15:47:21.299Z,0.90
2017-09-06T15:49:48.824Z,1.20
2017-09-06T15:52:16.359Z,0.95
2017-09-06T15:54:43.875Z,0.90
2017-09-06T15:57:11.426Z,0.90
2017-09-06T15:59:38.995Z,1.00
2017-09-06T16:02:06.520Z,0.80
2017-09-06T16:04:34.046Z,0.70
2017-09-06T16:07:01.546Z,0.80
2017-09-06T16:09:29.063Z,0.95
2017-09-06T16:11:56.609Z,0.90
2017-09-06T16:14:24.127Z,0.70
2017-09-06T16:16:51.648Z,0.80
2017-09-06T16:19:19.166Z,1.37
2017-09-06T16:21:46.666Z,0.95
2017-09-06T16:24:14.240Z,0.90
2017-09-06T16:26:41.923Z,1.00
2017-09-06T16:29:09.471Z,0.80
2017-09-06T16:31:36.972Z,1.00
2017-09-06T16:34:04.502Z,1.10
2017-09-06T16:36:32.013Z,0.82
2017-09-06T16:38:59.519Z,1.00
2017-09-06T16:41:27.043Z,1.00
2017-09-06T16:43:54.758Z,0.95
2017-09-06T16:46:22.275Z,0.90
2017-09-06T16:48:49.775Z,0.70
2017-09-06T16:51:17.390Z,0.88
2017-09-06T16:53:44.907Z,1.05
2017-09-06T16:56:12.433Z,1.30
2017-09-06T16:58:39.966Z,1.35
2017-09-06T17:01:07.491Z,0.90
2017-09-06T17:03:35.004Z,1.12
2017-09-06T17:06:02.538Z,1.33
2017-09-06T17:08:30.043Z,1.00
2017-09-06T17:10:57.559Z,1.15
2017-09-06T17:13:25.059Z,1.20
2017-09-06T17:15:52.602Z,0.70
2017-09-06T17:18:20.127Z,1.48
2017-09-06T17:20:47.699Z,0.95
2017-09-06T17:23:15.216Z,0.88
2017-09-06T17:25:42.852Z,1.10
2017-09-06T17:28:10.355Z,0.70
2017-09-06T17:30:37.874Z,1.10
2017-09-06T17:33:05.387Z,1.10
2017-09-06T17:35:32.926Z,1.15
2017-09-06T17:38:00.424Z,1.08
2017-09-06T17:40:27.994Z,1.00
2017-09-06T17:42:55.515Z,1.10
2017-09-06T17:45:23.030Z,1.30
2017-09-06T17:47:50.551Z,0.90
2017-09-06T17:50:18.082Z,0.95
2017-09-06T17:52:45.603Z,0.85
2017-09-06T17:55:13.101Z,0.82
2017-09-06T17:57:40.618Z,0.90
2017-09-06T18:00:08.118Z,1.55
2017-09-06T18:02:35.658Z,0.75
2017-09-06T18:05:03.183Z,0.90
2017-09-06T18:07:30.730Z,1.50
2017-09-06T18:09:58.230Z,0.90
2017-09-06T18:12:25.758Z,0.90
2017-09-06T18:14:53.343Z,1.00
2017-09-06T18:17:20.879Z,1.30
2017-09-06T18:19:48.402Z,1.00
2017-09-06T18:22:16.032Z,1.50
2017-09-06T18:24:43.539Z,1.55
2017-09-06T18:27:11.075Z,0.88
2017-09-06T18:29:38.635Z,1.00
2017-09-06T18:32:06.218Z,1.00
2017-09-06T18:34:33.724Z,1.52
2017-09-06T18:37:01.367Z,0.98
2017-09-06T18:39:28.865Z,1.05
2017-09-06T18:41:56.395Z,1.12
2017-09-06T18:44:23.986Z,1.80
2017-09-06T18:46:51.523Z,1.30
2017-09-06T18:49:19.097Z,1.10
2017-09-06T18:51:46.598Z,1.30
2017-09-06T18:54:14.143Z,1.37
2017-09-06T18:56:41.731Z,1.12
2017-09-06T18:59:09.341Z,1.35
2017-09-06T19:01:36.877Z,1.33
2017-09-06T19:04:04.406Z,1.45
2017-09-06T19:06:31.906Z,1.52
2017-09-06T19:08:59.426Z,1.58
2017-09-06T19:11:26.988Z,2.00
2017-09-06T19:13:54.531Z,1.80
2017-09-06T19:16:22.038Z,2.42
2017-09-06T19:18:49.554Z,1.65
2017-09-06T19:21:17.070Z,1.80
2017-09-06T19:23:44.587Z,1.70
2017-09-06T19:26:12.195Z,1.65
2017-09-06T19:28:39.758Z,1.70
2017-09-06T19:31:07.283Z,2.12
2017-09-06T19:33:34.851Z,1.60
2017-09-06T19:36:02.421Z,1.80
2017-09-06T19:38:30.026Z,2.10
2017-09-06T19:40:57.623Z,1.80
2017-09-06T19:43:25.132Z,2.17
2017-09-06T19:45:52.673Z,2.20
2017-09-06T19:48:20.179Z,1.80
2017-09-06T19:50:48.466Z,2.30
2017-09-06T19:53:15.974Z,2.35
2017-09-06T19:55:43.495Z,1.70
2017-09-06T19:58:11.065Z,1.80
2017-09-06T20:00:38.651Z,2.50
2017-09-06T20:03:06.215Z,2.65
2017-09-06T20:05:33.775Z,1.75
2017-09-06T20:08:01.432Z,2.03
2017-09-06T20:10:29.829Z,1.80
2017-09-06T20:12:57.322Z,2.00
2017-09-06T20:15:24.847Z,2.45
2017-09-06T20:17:52.355Z,2.65
2017-09-06T20:20:19.967Z,2.58
2017-09-06T20:22:47.487Z,2.60
2017-09-06T20:25:15.012Z,2.15
2017-09-06T20:27:42.613Z,1.98
2017-09-06T20:30:10.210Z,1.98
2017-09-06T20:32:37.712Z,1.40
2017-09-06T20:35:05.235Z,2.00
2017-09-06T20:37:32.734Z,2.33
2017-09-06T20:40:00.250Z,2.30
2017-09-06T20:42:27.756Z,2.40
2017-09-06T20:44:55.252Z,1.85
2017-09-06T20:47:22.763Z,1.90
2017-09-06T20:49:50.259Z,2.03
2017-09-06T20:52:17.787Z,2.53
2017-09-06T20:54:45.295Z,2.37
2017-09-06T20:57:12.862Z,2.28
2017-09-06T20:59:40.384Z,2.35
2017-09-06T21:02:07.915Z,2.10
2017-09-06T21:04:35.471Z,1.85
2017-09-06T21:07:02.986Z,1.95
2017-09-06T21:09:30.482Z,2.42
2017-09-06T21:11:58.010Z,1.60
2017-09-06T21:14:25.526Z,2.12
2017-09-06T21:16:53.048Z,2.00
2017-09-06T21:19:20.546Z,2.17
2017-09-06T21:21:48.067Z,2.00
2017-09-06T21:24:15.563Z,2.25
2017-09-06T21:26:43.091Z,1.90
2017-09-06T21:29:10.599Z,2.15
2017-09-06T21:31:38.159Z,1.80
2017-09-06T21:34:05.667Z,2.17
2017-09-06T21:36:33.183Z,1.80
2017-09-06T21:39:00.677Z,2.67
2017-09-06T21:41:28.196Z,2.28
2017-09-06T21:43:55.708Z,2.37
2017-09-06T21:46:23.224Z,2.00
2017-09-06T21:48:50.743Z,1.73
2017-09-06T21:51:18.246Z,2.05
2017-09-06T21:53:45.757Z,2.33
2017-09-06T21:56:13.267Z,1.80
2017-09-06T21:58:40.778Z,1.70
2017-09-06T22:01:08.282Z,2.10
2017-09-06T22:03:35.816Z,1.95
2017-09-06T22:06:03.350Z,1.90
2017-09-06T22:08:30.866Z,1.83
2017-09-06T22:10:58.362Z,1.75
2017-09-06T22:13:25.886Z,1.92
2017-09-06T22:15:53.422Z,2.42
2017-09-06T22:18:20.986Z,2.62
2017-09-06T22:20:48.491Z,1.98
2017-09-06T22:23:16.071Z,1.95
2017-09-06T22:25:43.616Z,2.08
2017-09-06T22:28:11.131Z,2.30
2017-09-06T22:30:38.656Z,2.30
2017-09-06T22:33:06.184Z,2.03
2017-09-06T22:35:33.684Z,1.85
2017-09-06T22:38:01.186Z,2.70
2017-09-06T22:40:28.698Z,2.28
2017-09-06T22:42:56.202Z,1.92
2017-09-06T22:45:23.719Z,2.55
2017-09-06T22:47:51.231Z,2.30
2017-09-06T22:50:18.747Z,1.80
2017-09-06T22:52:46.247Z,2.20
2017-09-06T22:55:13.766Z,2.20
2017-09-06T22:57:41.274Z,2.87
2017-09-06T23:00:08.791Z,2.10
2017-09-06T23:02:39.206Z,2.22
2017-09-06T23:05:06.772Z,2.20
2017-09-06T23:07:34.267Z,2.75
2017-09-06T23:10:01.787Z,2.10
2017-09-06T23:12:29.290Z,2.03
2017-09-06T23:14:56.839Z,2.15
2017-09-06T23:17:24.339Z,2.70
2017-09-06T23:19:51.870Z,1.92
2017-09-06T23:22:19.366Z,1.85
2017-09-06T23:24:46.899Z,2.30
2017-09-06T23:27:14.420Z,2.40
2017-09-06T23:29:42.006Z,2.47
2017-09-06T23:32:09.498Z,2.10
2017-09-06T23:34:37.018Z,1.87
2017-09-06T23:37:04.515Z,2.50
2017-09-06T23:39:32.023Z,2.42
2017-09-06T23:41:59.555Z,2.55
2017-09-06T23:44:27.060Z,2.47
2017-09-06T23:46:54.575Z,2.65
2017-09-06T23:49:22.079Z,2.00
2017-09-06T23:51:49.607Z,2.12
2017-09-06T23:54:17.114Z,2.22
2017-09-06T23:56:45.424Z,2.40
2017-09-06T23:59:12.919Z,2.17
